Latest Weather Observations for Esperance

IDW60801

Issued at 4:33 pm WST Saturday 25 June 2016 (issued every 30 minutes, with the page automatically refreshed every 10 minutes)

About weather observations | Map of weather stations | Latest weather observations for WA | Other Formats
Station Details ID: 009789 Name: ESPERANCE Lat: -33.83 Lon: 121.89 Height: 25.0 m
Data from the previous 72 hours. | See also: Recent months at Esperance
Date/Time
WST
Temp
°C
App
Temp
°C
Dew
Point
°C
Rel
Hum
%
Delta-T
°C
Wind Press
QNH
hPa
Press
MSL
hPa
Rain since
9am
mm
Dir  Spd
km/h
Gust
km/h
Spd
kts
Gust
kts
25/04:30pm 11.5 9.9 10.3 92 0.6 SW 9 15 5 8 1018.1 1018.1 9.6
25/04:22pm 11.5 9.9 10.3 92 0.6 SW 9 13 5 7 1018.1 1018.1 9.6
25/04:00pm 11.4 8.7 10.2 92 0.6 SW 15 30 8 16 1018.0 1018.0 9.0
25/03:56pm 11.8 9.4 10.2 90 0.8 SSW 13 30 7 16 1018.0 1018.0 8.4
25/03:30pm 11.5 10.4 10.7 95 0.4 WSW 7 11 4 6 1017.5 1017.5 7.8
25/03:00pm 11.3 9.1 10.9 97 0.2 SSW 13 20 7 11 1017.2 1017.1 7.0
25/02:38pm 11.5 8.6 11.1 97 0.2 SSW 17 26 9 14 1017.0 1016.9 6.4
25/02:30pm 11.3 8.0 10.9 97 0.2 SSW 19 28 10 15 1016.9 1016.8 6.2
25/02:00pm 11.4 8.4 10.8 96 0.3 W 17 24 9 13 1016.5 1016.4 1.4
25/01:42pm 11.9 7.5 10.3 90 0.8 WSW 24 39 13 21 1016.6 1016.5 0.2
25/01:30pm 15.1 10.2 8.6 65 3.3 WNW 24 37 13 20 1016.1 1016.0 0.0
25/01:00pm 14.9 10.2 7.9 63 3.5 WNW 22 32 12 17 1016.1 1016.0 0.0
25/12:30pm 14.5 10.0 7.1 61 3.6 W 20 33 11 18 1016.5 1016.4 0.0
25/12:00pm 14.2 8.8 6.5 60 3.7 W 24 37 13 20 1016.8 1016.7 0.0
25/11:30am 14.1 9.0 5.9 57 3.9 NW 22 33 12 18 1016.9 1016.8 0.0
25/11:00am 14.1 8.6 6.1 58 3.8 NW 24 32 13 17 1017.1 1017.0 0.0
25/10:30am 13.4 6.7 5.8 60 3.6 NW 30 39 16 21 1017.2 1017.1 0.0
25/10:00am 13.0 6.6 5.3 59 3.6 NW 28 39 15 21 1017.2 1017.1 0.0
25/09:30am 12.2 6.5 4.8 60 3.4 NW 24 33 13 18 1017.1 1017.0 0.0
25/09:00am 11.1 5.3 4.2 62 3.1 NW 24 33 13 18 1017.0 1016.9 0.0
25/08:30am 10.2 5.3 4.1 66 2.7 NW 19 26 10 14 1017.0 1016.9 0.0
25/08:00am 9.6 4.4 3.6 66 2.6 NW 20 30 11 16 1017.0 1016.9 0.0
25/07:30am 8.7 4.8 3.6 70 2.2 NW 13 20 7 11 1017.0 1016.9 0.0
25/07:00am 7.2 4.1 3.7 78 1.5 NNW 9 13 5 7 1017.0 1016.9 0.0
25/06:30am 6.9 3.8 3.6 79 1.4 NNW 9 13 5 7 1017.0 1016.9 0.0
25/06:00am 7.0 3.1 3.5 78 1.5 NNW 13 17 7 9 1016.9 1016.8 0.0
25/05:30am 7.4 3.6 3.7 77 1.6 NW 13 19 7 10 1016.9 1016.8 0.0
25/05:00am 7.5 2.9 3.5 76 1.7 NNW 17 22 9 12 1016.6 1016.5 0.0
25/04:30am 7.6 2.6 3.4 75 1.8 NNW 19 24 10 13 1016.5 1016.4 0.0
25/04:00am 8.0 2.8 3.6 74 1.9 N 20 26 11 14 1016.6 1016.5 0.0
25/03:30am 8.2 3.0 3.3 71 2.1 NNW 20 30 11 16 1017.0 1016.9 0.0
25/03:00am 8.1 3.5 3.9 75 1.8 NNW 17 22 9 12 1017.4 1017.4 0.0
25/02:30am 8.8 5.0 4.0 72 2.1 NNW 13 20 7 11 1017.7 1017.7 0.0
25/02:00am 9.2 4.6 3.9 69 2.3 NNW 17 24 9 13 1017.8 1017.8 0.0
25/01:30am 9.1 5.4 4.3 72 2.1 NNW 13 17 7 9 1017.9 1017.9 0.0
25/01:00am 8.7 4.7 5.1 78 1.6 N 15 19 8 10 1018.0 1018.0 0.0
25/12:30am 9.3 5.3 4.8 73 2.0 N 15 19 8 10 1018.2 1018.2 0.0
25/12:00am 9.0 5.5 5.5 79 1.6 N 13 19 7 10 1018.2 1018.2 0.0
 
Date/Time
WST
Temp
°C
App
Temp
°C
Dew
Point
°C
Rel
Hum
%
Delta-T
°C
Wind Press
QNH
hPa
Press
MSL
hPa
Rain since
9am
mm
Dir  Spd
km/h
Gust
km/h
Spd
kts
Gust
kts
24/11:30pm 9.6 5.8 5.9 78 1.7 N 15 20 8 11 1018.3 1018.3 0.0
24/11:00pm 10.5 6.6 5.5 71 2.3 N 15 19 8 10 1018.5 1018.5 0.0
24/10:30pm 11.7 7.6 4.6 62 3.2 N 15 20 8 11 1018.5 1018.5 0.0
24/10:00pm 11.7 7.8 5.4 65 2.9 N 15 19 8 10 1018.7 1018.7 0.0
24/09:30pm 12.2 7.7 4.2 58 3.6 N 17 24 9 13 1018.9 1018.9 0.0
24/09:00pm 11.6 8.1 5.5 66 2.8 N 13 19 7 10 1018.9 1018.9 0.0
24/08:30pm 11.7 8.3 5.7 66 2.8 N 13 17 7 9 1019.2 1019.2 0.0
24/08:00pm 11.9 8.8 5.4 64 3.0 N 11 17 6 9 1019.2 1019.2 0.0
24/07:30pm 12.1 9.3 5.1 62 3.2 N 9 13 5 7 1019.4 1019.4 0.0
24/07:00pm 12.4 8.7 4.5 58 3.6 N 13 17 7 9 1019.4 1019.4 0.0
24/06:30pm 12.5 8.7 4.1 56 3.8 NNW 13 20 7 11 1019.2 1019.2 0.0
24/06:00pm 12.5 8.9 4.9 60 3.5 NNW 13 17 7 9 1019.2 1019.2 0.0
24/05:30pm 12.6 9.0 5.0 60 3.5 N 13 17 7 9 1019.1 1019.1 0.0
24/05:00pm 12.9 9.6 4.6 57 3.8 N 11 15 6 8 1018.9 1018.9 0.0
24/04:30pm 13.1 10.7 5.1 58 3.7 N 7 11 4 6 1018.8 1018.8 0.0
24/04:00pm 13.3 10.3 4.0 53 4.2 NNW 9 13 5 7 1018.8 1018.8 0.0
24/03:30pm 13.5 9.3 4.0 52 4.3 NW 15 22 8 12 1018.9 1018.9 0.0
24/03:00pm 13.6 8.9 3.3 49 4.6 NNW 17 26 9 14 1018.9 1018.9 0.0
24/02:30pm 13.8 9.0 2.7 47 4.9 NW 17 26 9 14 1019.0 1019.0 0.0
24/02:00pm 14.8 9.8 3.6 47 5.1 NNW 19 30 10 16 1019.1 1019.1 0.0
24/01:30pm 14.5 9.5 3.4 47 5.0 NW 19 26 10 14 1019.4 1019.4 0.0
24/01:00pm 14.6 10.0 3.6 47 5.0 NNW 17 26 9 14 1019.7 1019.7 0.0
24/12:30pm 14.3 9.0 3.1 47 5.0 NNW 20 28 11 15 1020.3 1020.3 0.0
24/12:00pm 14.5 9.7 4.6 51 4.6 NNW 19 24 10 13 1020.9 1020.9 0.0
24/11:30am 13.9 9.1 4.8 54 4.2 NNW 19 24 10 13 1021.4 1021.4 0.0
24/11:00am 14.6 10.5 6.0 56 4.1 NW 17 20 9 11 1022.1 1022.1 0.0
24/10:30am 13.3 9.1 5.9 61 3.5 NW 17 22 9 12 1022.5 1022.5 0.0
24/10:00am 11.7 7.7 6.6 71 2.4 WNW 17 22 9 12 1022.8 1022.8 0.0
24/09:30am 11.0 7.0 6.5 74 2.1 NW 17 22 9 12 1022.7 1022.7 0.0
24/09:00am 10.9 6.6 5.2 68 2.6 NNW 17 26 9 14 1022.6 1022.6 1.0
24/08:30am 11.7 8.3 5.9 67 2.7 NNW 13 17 7 9 1022.5 1022.5 1.0
24/08:00am 9.5 6.6 6.5 81 1.4 NW 11 15 6 8 1022.3 1022.3 1.0
24/07:30am 9.1 5.8 6.3 83 1.3 NW 13 17 7 9 1022.0 1022.0 1.0
24/07:00am 8.9 6.0 6.7 86 1.0 WNW 11 15 6 8 1021.8 1021.8 1.0
24/06:30am 9.1 5.5 6.7 85 1.1 WNW 15 20 8 11 1021.6 1021.6 1.0
24/06:00am 9.3 5.7 6.7 84 1.2 W 15 22 8 12 1021.4 1021.4 1.0
24/05:30am 9.3 6.2 7.2 87 1.0 WNW 13 17 7 9 1021.2 1021.2 1.0
24/05:00am 9.4 6.3 7.3 87 1.0 WNW 13 17 7 9 1021.1 1021.1 1.0
24/04:30am 9.2 6.4 7.1 87 1.0 NW 11 17 6 9 1020.9 1020.9 1.0
24/04:00am 9.2 6.1 7.1 87 1.0 NW 13 17 7 9 1021.1 1021.1 1.0
24/03:40am 9.1 5.6 7.2 88 0.9 NNW 15 19 8 10 1021.1 1021.1 1.0
24/03:30am 9.0 5.1 7.3 89 0.8 NW 17 24 9 13 1021.1 1021.1 1.0
24/03:27am 9.0 5.1 7.3 89 0.8 NW 17 24 9 13 1021.1 1021.1 1.0
24/03:00am 9.5 6.4 7.2 85 1.1 WNW 13 17 7 9 1021.3 1021.3 1.0
24/02:30am 9.1 5.6 7.2 88 0.9 NW 15 20 8 11 1021.2 1021.2 1.0
24/02:00am 9.0 5.9 7.3 89 0.8 NW 13 19 7 10 1021.3 1021.3 1.0
24/01:30am 9.1 5.6 7.4 89 0.8 NW 15 20 8 11 1021.3 1021.3 1.0
24/01:01am 9.3 5.9 7.8 90 0.7 NW 15 22 8 12 1021.4 1021.4 1.0
24/01:00am 9.2 5.9 7.9 92 0.6 NW 15 22 8 12 1021.4 1021.4 1.0
24/12:51am 9.2 6.2 7.9 92 0.6 NW 13 20 7 11 1021.3 1021.3 1.0
24/12:30am 9.2 6.2 7.5 89 0.8 NW 13 17 7 9 1021.3 1021.3 0.8
24/12:00am 9.5 6.5 7.6 88 0.9 NW 13 17 7 9 1021.4 1021.4 0.8
 
Date/Time
WST
Temp
°C
App
Temp
°C
Dew
Point
°C
Rel
Hum
%
Delta-T
°C
Wind Press
QNH
hPa
Press
MSL
hPa
Rain since
9am
mm
Dir  Spd
km/h
Gust
km/h
Spd
kts
Gust
kts
23/11:30pm 9.5 6.1 7.6 88 0.9 NW 15 19 8 10 1021.5 1021.5 0.8
23/11:00pm 9.6 5.7 7.3 85 1.1 WNW 17 20 9 11 1021.6 1021.6 0.8
23/10:30pm 9.0 6.3 7.3 89 0.8 WNW 11 15 6 8 1021.6 1021.6 0.8
23/10:00pm 9.2 5.7 7.1 87 1.0 NW 15 20 8 11 1021.4 1021.4 0.8
23/09:30pm 9.2 6.3 6.6 84 1.2 NNW 11 15 6 8 1021.3 1021.3 0.8
23/09:00pm 9.4 7.5 7.7 89 0.8 NW 7 9 4 5 1021.4 1021.4 0.8
23/08:30pm 10.3 8.3 6.9 79 1.6 S 7 11 4 6 1021.1 1021.1 0.8
23/08:00pm 10.3 8.1 7.8 84 1.2 WSW 9 11 5 6 1021.1 1021.1 0.8
23/07:30pm 10.1 8.3 8.0 87 1.0 W 7 9 4 5 1020.8 1020.8 0.8
23/07:04pm 10.1 7.6 8.2 88 0.9 W 11 17 6 9 1020.8 1020.8 0.8
23/07:00pm 10.1 7.2 8.0 87 1.0 W 13 20 7 11 1020.8 1020.8 0.8
23/06:48pm 10.3 7.5 8.5 89 0.9 W 13 19 7 10 1020.7 1020.7 0.8
23/06:38pm 10.3 7.7 7.8 84 1.2 W 11 17 6 9 1020.5 1020.5 0.4
23/06:30pm 10.2 8.1 8.1 87 1.0 SW 9 17 5 9 1020.5 1020.5 0.4
23/06:22pm 10.3 6.6 7.8 84 1.2 WSW 17 33 9 18 1020.4 1020.4 0.4
23/06:00pm 11.1 8.7 7.1 76 1.9 SW 9 15 5 8 1020.0 1020.0 0.0
23/05:30pm 11.2 7.8 6.0 70 2.4 SW 13 19 7 10 1019.9 1019.9 0.0
23/05:00pm 11.2 8.1 7.2 76 1.9 SSW 13 19 7 10 1019.5 1019.5 0.0
23/04:30pm 12.4 9.0 5.8 64 3.1 SW 13 19 7 10 1019.2 1019.2 0.0
23/04:00pm 12.7 8.2 5.9 63 3.2 SW 19 32 10 17 1019.0 1019.0 0.0
23/03:30pm 13.7 9.0 2.9 48 4.8 SW 17 32 9 17 1018.7 1018.7 0.0
23/03:00pm 13.5 8.0 4.0 52 4.3 SW 22 32 12 17 1018.6 1018.6 0.0
23/02:30pm 14.0 8.5 3.9 50 4.6 SW 22 37 12 20 1018.4 1018.4 0.0
23/02:00pm 12.5 7.4 5.9 64 3.1 SW 22 35 12 19 1018.1 1018.1 0.0
23/01:30pm 13.7 8.6 4.3 53 4.3 SW 20 41 11 22 1018.1 1018.1 0.0
23/01:00pm 13.8 7.6 4.2 52 4.4 WSW 26 39 14 21 1018.0 1018.0 0.0
23/12:30pm 12.0 6.6 6.5 69 2.6 SSW 24 39 13 21 1018.1 1018.1 0.0
23/12:23pm 11.5 5.5 7.1 74 2.1 SW 28 52 15 28 1018.2 1018.2 0.0
23/12:00pm 14.1 8.7 4.3 51 4.5 SW 22 41 12 22 1018.0 1018.0 0.0
23/11:30am 13.3 7.5 4.6 55 4.0 SW 24 39 13 21 1018.2 1018.2 0.0
23/11:00am 14.1 7.8 3.5 49 4.8 SW 26 46 14 25 1018.1 1018.1 0.0
23/10:57am 13.7 6.7 2.0 45 5.1 SW 28 46 15 25 1018.0 1018.0 0.0
23/10:30am 14.1 7.8 1.3 41 5.5 SW 24 48 13 26 1018.2 1018.2 0.0
23/10:00am 13.4 6.8 1.8 45 5.0 SW 26 37 14 20 1018.2 1018.2 0.0
23/09:30am 13.5 6.7 2.9 48 4.7 SW 28 43 15 23 1017.9 1017.9 0.0
23/09:00am 12.7 6.8 4.1 56 3.9 SW 24 39 13 21 1017.1 1017.0 13.4
23/08:30am 12.6 5.4 1.0 45 4.9 SW 28 46 15 25 1016.7 1016.6 13.4
23/08:00am 12.6 5.3 2.2 49 4.5 SW 30 48 16 26 1016.2 1016.1 13.4
23/07:44am 12.6 5.3 2.5 50 4.4 SW 30 52 16 28 1016.1 1016.0 13.4
23/07:30am 12.5 6.4 4.6 58 3.6 SSW 26 43 14 23 1015.8 1015.7 13.4
23/07:00am 12.4 7.4 4.8 60 3.5 SW 20 39 11 21 1015.6 1015.5 13.4
23/06:30am 12.1 7.3 5.7 65 3.0 SSW 20 33 11 18 1015.2 1015.2 13.4
23/06:00am 12.0 7.2 5.5 64 3.0 SW 20 35 11 19 1014.8 1014.8 13.4
23/05:30am 12.0 7.1 5.3 63 3.1 SW 20 33 11 18 1014.3 1014.3 13.4
23/05:00am 11.6 8.0 6.8 72 2.3 WSW 15 28 8 15 1014.2 1014.2 13.4
23/04:30am 11.4 8.0 7.5 77 1.9 SW 15 24 8 13 1014.0 1014.0 13.2
23/04:01am 11.3 7.6 7.8 79 1.7 WSW 17 30 9 16 1014.0 1014.0 13.2
23/04:00am 11.3 7.6 7.8 79 1.7 WSW 17 30 9 16 1014.1 1014.1 13.2
23/03:49am 11.0 6.9 8.6 85 1.2 SW 20 33 11 18 1013.9 1013.9 13.2
23/03:30am 11.6 8.2 7.7 77 1.9 WSW 15 20 8 11 1013.8 1013.8 13.0
23/03:00am 11.5 7.9 8.2 80 1.6 WSW 17 28 9 15 1013.8 1013.8 12.8
23/02:30am 12.3 7.8 7.1 70 2.5 WSW 20 33 11 18 1013.7 1013.7 12.8
23/02:00am 10.9 8.7 9.3 90 0.8 W 11 19 6 10 1013.4 1013.4 12.8
23/01:30am 11.5 7.6 8.5 82 1.5 SW 19 35 10 19 1013.5 1013.5 12.6
23/01:00am 11.3 8.7 9.3 87 1.0 WSW 13 19 7 10 1013.3 1013.3 12.6
23/12:50am 11.3 8.3 9.3 87 1.0 WSW 15 20 8 11 1013.3 1013.3 12.6
23/12:32am 11.1 7.8 9.7 91 0.7 SW 17 28 9 15 1013.4 1013.4 12.6
23/12:30am 11.0 8.2 10.0 93 0.5 SW 15 28 8 15 1013.5 1013.5 12.6
23/12:15am 10.6 8.2 10.0 96 0.3 WSW 13 22 7 12 1013.3 1013.3 12.4
23/12:00am 10.8 7.4 10.4 97 0.2 SW 19 32 10 17 1013.7 1013.7 12.4
 
Date/Time
WST
Temp
°C
App
Temp
°C
Dew
Point
°C
Rel
Hum
%
Delta-T
°C
Wind Press
QNH
hPa
Press
MSL
hPa
Rain since
9am
mm
Dir  Spd
km/h
Gust
km/h
Spd
kts
Gust
kts
22/11:50pm 11.1 7.6 10.3 95 0.4 SW 19 28 10 15 1013.6 1013.6 12.0
22/11:32pm 11.8 9.1 10.2 90 0.8 WSW 15 22 8 12 1013.3 1013.3 11.8
22/11:30pm 11.8 9.0 10.0 89 0.9 WSW 15 22 8 12 1013.4 1013.4 11.6
22/11:15pm 11.6 9.3 10.4 92 0.6 W 13 35 7 19 1013.4 1013.4 11.6
22/11:04pm 11.5 9.6 10.5 94 0.5 W 11 52 6 28 1013.4 1013.4 11.6
22/11:00pm 11.5 9.2 10.5 94 0.5 W 13 22 7 12 1013.3 1013.3 11.6
22/10:30pm 11.9 9.9 11.5 97 0.2 W 13 20 7 11 1013.1 1013.1 11.2
22/10:17pm 12.0 10.4 11.4 96 0.3 WNW 11 17 6 9 1013.0 1013.0 10.4
22/10:00pm 11.9 9.1 11.5 97 0.2 WNW 17 24 9 13 1012.8 1012.8 10.0
22/09:30pm 11.9 10.7 11.5 97 0.2 W 9 24 5 13 1012.6 1012.6 8.6
22/09:22pm 12.0 10.0 11.4 96 0.3 W 13 22 7 12 1012.7 1012.7 8.2
22/09:17pm 12.0 9.6 11.4 96 0.3 WNW 15 22 8 12 1012.7 1012.7 8.0
22/09:07pm 11.9 9.1 11.5 97 0.2 WNW 17 24 9 13 1012.7 1012.7 7.6
22/09:00pm 11.9 8.7 11.3 96 0.3 WNW 19 28 10 15 1012.8 1012.8 7.4
22/08:35pm 12.3 10.0 11.9 97 0.2 WNW 15 22 8 12 1012.9 1012.9 6.2
22/08:30pm 12.3 10.0 11.9 97 0.2 WNW 15 22 8 12 1012.6 1012.6 5.6
22/08:00pm 12.4 9.6 11.5 94 0.5 WSW 17 30 9 16 1012.5 1012.5 3.2
22/07:49pm 11.9 10.5 10.9 94 0.5 WSW 9 15 5 8 1012.6 1012.6 2.6
22/07:33pm 12.4 10.1 10.5 88 1.0 WSW 13 20 7 11 1012.3 1012.3 1.0
22/07:30pm 12.4 9.7 10.5 88 1.0 WSW 15 24 8 13 1012.3 1012.3 1.0
22/07:18pm 12.5 9.4 10.2 86 1.2 W 17 28 9 15 1012.5 1012.5 0.8
22/07:00pm 12.5 10.9 10.2 86 1.2 W 9 13 5 7 1012.1 1012.1 0.6
22/06:51pm 12.5 10.6 10.4 87 1.1 W 11 17 6 9 1012.1 1012.1 0.6
22/06:36pm 12.9 10.0 9.6 80 1.7 W 15 22 8 12 1012.3 1012.3 0.6
22/06:30pm 13.4 10.2 8.4 72 2.5 W 15 20 8 11 1012.3 1012.3 0.0
22/06:00pm 13.4 10.1 8.2 71 2.6 WNW 15 19 8 10 1011.7 1011.7 0.0
22/05:30pm 13.7 10.3 7.8 67 2.9 NW 15 20 8 11 1011.4 1011.4 0.0
22/05:00pm 14.1 10.8 8.1 67 3.0 NW 15 19 8 10 1011.4 1011.4 0.0

Other Formats:

Comma delimited format used in spreadsheet applications
http://www.bom.gov.au/fwo/IDW60801/IDW60801.94638.axf

JavaScript Object Notation format (JSON) in row-major order
http://www.bom.gov.au/fwo/IDW60801/IDW60801.94638.json